Time;durP1;ratioP1;P1;durP2;ratioP2;P2;SDS_P1;SDS_P2;PMS_P1;PMS_P2;Temp;Humidity;BMP_temperature;BMP_pressure;BME280_temperature;BME280_humidity;BME280_pressure;Samples;Min_cycle;Max_cycle;Signal;HPM_P1;HPM_P2
2022/05/23 00:00:42;;;;;;;8.35;2.88;;;;;;;14.41;64.32;99900.59;5073056;28;20433;-73
2022/05/23 00:03:11;;;;;;;7.20;2.97;;;;;;;14.38;64.06;99895.47;5073024;28;20090;-73
2022/05/23 00:05:40;;;;;;;6.28;2.80;;;;;;;14.35;64.97;99895.72;5073107;28;20044;-73
2022/05/23 00:08:08;;;;;;;8.48;2.80;;;;;;;14.29;66.20;99897.94;5073099;28;20072;-74
2022/05/23 00:10:36;;;;;;;6.47;2.55;;;;;;;14.43;65.18;99898.66;5072825;28;20119;-73
2022/05/23 00:13:06;;;;;;;4.95;2.50;;;;;;;14.48;65.67;99901.84;5072898;28;20044;-74
2022/05/23 00:15:36;;;;;;;6.50;2.80;;;;;;;14.58;64.69;99897.44;5072921;28;20040;-73
2022/05/23 00:18:04;;;;;;;6.25;2.70;;;;;;;14.55;64.25;99906.56;5072850;28;20048;-74
2022/05/23 00:20:32;;;;;;;6.72;3.00;;;;;;;14.50;64.11;99906.09;5071745;28;20143;-74
2022/05/23 00:23:01;;;;;;;6.60;2.80;;;;;;;14.25;66.41;99912.56;5072821;28;20040;-74
2022/05/23 00:25:31;;;;;;;5.57;2.80;;;;;;;14.39;64.97;99914.16;5073228;28;20063;-74
2022/05/23 00:28:00;;;;;;;6.15;2.90;;;;;;;14.40;64.82;99907.81;5072983;28;20056;-74
2022/05/23 00:30:28;;;;;;;5.13;2.45;;;;;;;14.29;65.17;99916.72;5073168;28;20123;-74
2022/05/23 00:35:56;;;;;;;6.68;2.50;;;;;;;14.13;65.89;99908.19;5072774;28;20064;-74
2022/05/23 00:38:24;;;;;;;4.93;2.70;;;;;;;14.03;66.40;99909.91;5072064;28;20407;-74
2022/05/23 00:43:44;;;;;;;5.00;2.67;;;;;;;13.99;67.26;99900.38;5077339;28;20131;-73
2022/05/23 00:46:12;;;;;;;8.55;2.70;;;;;;;14.00;67.36;99907.50;5076702;28;20036;-74
2022/05/23 00:48:42;;;;;;;6.38;2.65;;;;;;;13.87;68.17;99902.22;5076834;28;20470;-73
2022/05/23 00:51:14;;;;;;;5.03;2.53;;;;;;;13.90;67.54;99903.84;5075358;28;20087;-72
2022/05/23 00:53:47;;;;;;;8.30;2.67;;;;;;;13.89;67.76;99900.28;5076436;28;20463;-73
2022/05/23 00:56:16;;;;;;;;;;;;;;;13.79;67.86;99909.16;5076911;28;20534;-73
2022/05/23 00:58:48;;;;;;;5.88;2.42;;;;;;;13.78;67.99;99905.63;5076635;28;20378;-73
2022/05/23 01:01:25;;;;;;;7.63;2.90;;;;;;;13.80;68.71;99900.16;5076193;28;20036;-73
2022/05/23 01:03:55;;;;;;;6.40;2.45;;;;;;;13.79;69.04;99903.81;5076201;28;20149;-74
2022/05/23 01:06:24;;;;;;;5.38;2.45;;;;;;;13.77;69.50;99905.75;5074937;28;20410;-75
2022/05/23 01:08:56;;;;;;;6.85;2.42;;;;;;;13.86;68.30;99905.88;5076416;28;20071;-75
2022/05/23 01:11:25;;;;;;;5.00;2.10;;;;;;;13.98;66.79;99898.69;5076164;28;20036;-75
2022/05/23 01:13:54;;;;;;;5.47;2.55;;;;;;;14.00;66.16;99896.75;5076034;28;20045;-75
2022/05/23 01:16:26;;;;;;;6.20;2.47;;;;;;;13.93;66.67;99903.59;5076111;28;20036;-75
2022/05/23 01:18:56;;;;;;;5.78;2.45;;;;;;;13.82;67.56;99893.72;5076383;28;20120;-75
2022/05/23 01:21:34;;;;;;;6.40;2.33;;;;;;;13.68;69.29;99894.78;5075910;28;20052;-77
2022/05/23 01:24:12;;;;;;;5.90;2.30;;;;;;;13.59;68.65;99898.19;5074796;28;20508;-77
2022/05/23 01:26:42;;;;;;;3.70;2.20;;;;;;;13.65;67.56;99902.22;5076327;28;20072;-75
2022/05/23 01:29:13;;;;;;;5.55;2.70;;;;;;;13.52;68.78;99902.34;5075809;28;20048;-75
2022/05/23 01:31:43;;;;;;;4.43;2.72;;;;;;;13.38;69.71;99905.22;5074925;28;20131;-75
2022/05/23 01:34:11;;;;;;;5.03;2.50;;;;;;;13.29;69.98;99895.22;5074562;28;20056;-74
2022/05/23 01:36:39;;;;;;;4.53;2.60;;;;;;;13.22;72.72;99897.53;5074837;28;20115;-74
2022/05/23 01:39:08;;;;;;;5.07;2.55;;;;;;;13.17;74.32;99896.97;5075702;28;20041;-74
2022/05/23 01:41:37;;;;;;;4.80;2.35;;;;;;;13.11;74.65;99892.06;5075549;28;20036;-73
2022/05/23 01:44:07;;;;;;;5.93;2.75;;;;;;;13.05;75.65;99893.41;5075456;28;20067;-74
2022/05/23 01:46:36;;;;;;;7.88;3.00;;;;;;;13.10;76.61;99880.50;5074415;28;20056;-73
2022/05/23 01:49:04;;;;;;;6.25;2.85;;;;;;;12.96;78.74;99877.19;5075407;28;20054;-73
2022/05/23 01:51:33;;;;;;;6.40;2.78;;;;;;;12.84;79.34;99873.63;5075262;28;20506;-72
2022/05/23 01:54:01;;;;;;;5.55;2.78;;;;;;;12.82;79.44;99871.03;5074407;28;20083;-72
2022/05/23 01:56:30;;;;;;;6.22;2.97;;;;;;;12.76;79.57;99866.19;5075893;28;20044;-72
2022/05/23 02:01:46;;;;;;;9.07;2.80;;;;;;;12.73;80.10;99865.53;5075313;28;20040;-72
2022/05/23 02:04:15;;;;;;;5.25;2.65;;;;;;;12.68;80.61;99868.56;5074050;28;20464;-72
2022/05/23 02:06:43;;;;;;;8.10;2.88;;;;;;;12.92;75.99;99871.19;5074228;28;20382;-72
2022/05/23 02:09:12;;;;;;;5.63;3.10;;;;;;;12.95;73.10;99871.00;5074874;28;20458;-72
2022/05/23 02:11:43;;;;;;;5.30;3.00;;;;;;;13.09;70.69;99869.94;5075432;28;20478;-72
2022/05/23 02:14:12;;;;;;;8.27;2.80;;;;;;;13.33;69.07;99872.59;5074634;28;20048;-72
2022/05/23 02:16:41;;;;;;;4.78;2.78;;;;;;;13.24;69.34;99876.84;5075258;28;20094;-72
2022/05/23 02:19:10;;;;;;;8.48;3.53;;;;;;;13.12;71.73;99862.53;5074873;28;20040;-72
2022/05/23 02:21:38;;;;;;;7.95;3.20;;;;;;;12.97;74.53;99863.69;5074778;28;20158;-74
2022/05/23 02:24:07;;;;;;;6.00;3.10;;;;;;;12.95;74.67;99857.59;5074762;28;20047;-72
2022/05/23 02:26:37;;;;;;;8.07;2.85;;;;;;;12.84;76.15;99869.13;5075127;28;20064;-77
2022/05/23 02:29:07;;;;;;;5.95;2.83;;;;;;;12.80;75.38;99858.75;5074699;28;20119;-75
2022/05/23 02:31:36;;;;;;;5.90;3.05;;;;;;;12.54;78.47;99860.69;5074997;28;20474;-75
2022/05/23 02:34:05;;;;;;;7.03;2.83;;;;;;;12.39;81.13;99867.22;5074635;28;20123;-75
2022/05/23 02:36:36;;;;;;;6.13;3.00;;;;;;;12.27;82.15;99866.28;5070882;28;20045;-69
2022/05/23 02:39:05;;;;;;;4.38;2.70;;;;;;;12.26;84.26;99873.47;5054950;28;20037;-72
2022/05/23 02:41:34;;;;;;;6.10;3.00;;;;;;;12.23;85.23;99873.66;5085037;28;20071;-73
2022/05/23 02:44:02;;;;;;;7.80;3.08;;;;;;;12.17;87.84;99865.25;5074513;28;20119;-72
2022/05/23 02:46:31;;;;;;;9.00;3.60;;;;;;;12.26;87.61;99867.25;5074654;28;20036;-73
2022/05/23 02:48:59;;;;;;;7.05;2.95;;;;;;;12.48;82.83;99862.03;5055240;28;20041;-73
2022/05/23 02:51:28;;;;;;;6.38;2.90;;;;;;;12.13;86.22;99866.44;5053929;28;20186;-72
2022/05/23 02:53:57;;;;;;;6.22;3.25;;;;;;;12.15;85.76;99868.03;5054150;28;20076;-71
2022/05/23 02:56:28;;;;;;;7.30;3.40;;;;;;;12.07;85.83;99866.91;5054119;28;20406;-71
2022/05/23 02:58:57;;;;;;;4.85;3.30;;;;;;;11.88;88.63;99878.91;5054399;28;20454;-71
2022/05/23 03:01:25;;;;;;;6.57;3.40;;;;;;;11.88;89.60;99878.91;5060017;28;20074;-72
2022/05/23 03:03:52;;;;;;;6.35;3.63;;;;;;;11.98;90.85;99869.25;5073936;28;20048;-74
2022/05/23 03:06:23;;;;;;;6.72;3.03;;;;;;;11.99;90.65;99870.13;5072554;28;20053;-75
2022/05/23 03:08:52;;;;;;;9.20;3.20;;;;;;;11.97;90.23;99872.06;5074059;28;20071;-75
2022/05/23 03:11:21;;;;;;;7.70;3.22;;;;;;;11.99;89.68;99860.28;5073868;28;20112;-74
2022/05/23 03:13:50;;;;;;;6.88;3.38;;;;;;;12.02;89.33;99865.38;5074002;28;20040;-74
2022/05/23 03:16:18;;;;;;;8.20;3.33;;;;;;;12.14;88.78;99870.81;5072443;28;20044;-74
2022/05/23 03:18:46;;;;;;;10.00;3.92;;;;;;;12.11;89.79;99868.38;5073935;28;20373;-73
2022/05/23 03:26:58;;;;;;;6.72;3.15;;;;;;;12.16;89.23;99871.53;5073617;28;20089;-73
2022/05/23 03:26:59;;;;;;;6.35;3.20;;;;;;;12.44;84.58;99879.25;5073927;28;20044;-72
2022/05/23 03:29:29;;;;;;;8.02;3.33;;;;;;;12.47;83.50;99881.72;5073183;28;20041;-73
2022/05/23 03:31:58;;;;;;;6.72;3.65;;;;;;;12.57;82.68;99877.41;5073677;28;20409;-74
2022/05/23 03:34:26;;;;;;;6.32;3.50;;;;;;;12.63;82.22;99877.91;5073208;28;20393;-70
2022/05/23 03:36:54;;;;;;;6.90;3.65;;;;;;;12.66;82.98;99870.50;5057595;28;20083;-71
2022/05/23 03:39:23;;;;;;;8.75;3.92;;;;;;;12.89;81.63;99874.97;5068666;28;20147;-70
2022/05/23 03:41:54;;;;;;;7.57;3.60;;;;;;;13.11;80.26;99867.97;5053547;28;20116;-70
2022/05/23 03:44:22;;;;;;;8.57;3.58;;;;;;;13.93;75.19;99874.94;5052826;28;20055;-71
2022/05/23 03:46:50;;;;;;;6.25;3.00;;;;;;;14.94;69.08;99861.28;5053442;28;20045;-71
2022/05/23 03:49:18;;;;;;;6.97;3.10;;;;;;;15.83;63.41;99870.63;5053252;28;20393;-71
2022/05/23 03:51:46;;;;;;;5.60;3.97;;;;;;;16.59;60.33;99877.19;5051931;28;20107;-70
2022/05/23 03:54:15;;;;;;;8.02;3.60;;;;;;;17.01;57.72;99863.53;5052873;28;20045;-71
2022/05/23 03:56:43;;;;;;;6.55;3.60;;;;;;;17.32;56.93;99866.03;5053339;28;20041;-70
2022/05/23 03:59:12;;;;;;;9.27;4.00;;;;;;;17.63;55.64;99863.97;5053104;28;20041;-74
2022/05/23 04:01:40;;;;;;;6.60;2.92;;;;;;;18.60;51.53;99864.34;5053329;28;20051;-70
2022/05/23 04:04:09;;;;;;;7.80;3.25;;;;;;;18.63;50.68;99861.38;5055768;28;20045;-71
2022/05/23 04:06:38;;;;;;;6.55;3.00;;;;;;;19.26;49.07;99855.88;5053213;28;20083;-69
2022/05/23 04:09:06;;;;;;;5.95;2.85;;;;;;;19.37;48.45;99861.00;5068504;28;20493;-70
2022/05/23 04:11:34;;;;;;;10.75;3.30;;;;;;;19.55;47.31;99866.38;5052547;28;20041;-69
2022/05/23 04:14:03;;;;;;;8.32;3.40;;;;;;;19.48;47.71;99865.31;5053125;28;20045;-69
2022/05/23 04:16:32;;;;;;;7.32;3.22;;;;;;;19.99;46.28;99875.31;5052195;28;20049;-69
2022/05/23 04:19:05;;;;;;;5.47;3.10;;;;;;;20.66;44.84;99859.13;5052793;28;20107;-72
2022/05/23 04:21:33;;;;;;;7.55;3.40;;;;;;;20.66;44.54;99859.13;5051621;28;20067;-73
2022/05/23 04:24:01;;;;;;;5.80;3.10;;;;;;;20.28;44.25;99855.97;5052939;28;20049;-74
2022/05/23 04:26:30;;;;;;;5.80;3.13;;;;;;;20.79;43.88;99856.78;5052764;28;20040;-75
2022/05/23 04:28:58;;;;;;;6.90;3.20;;;;;;;20.90;42.97;99858.31;5051773;28;20103;-75
2022/05/23 04:31:26;;;;;;;7.32;3.58;;;;;;;20.47;44.54;99859.44;5052449;28;20505;-74
2022/05/23 04:36:41;;;;;;;6.97;2.90;;;;;;;19.89;45.78;99863.75;5052732;28;20044;-74
2022/05/23 04:39:10;;;;;;;5.18;2.95;;;;;;;21.14;43.34;99855.63;5051382;28;20049;-74
2022/05/23 04:41:39;;;;;;;7.50;3.28;;;;;;;21.39;42.53;99848.34;5052455;28;20049;-72
2022/05/23 04:44:07;;;;;;;7.93;3.17;;;;;;;21.83;41.40;99850.63;5051489;28;20073;-70
2022/05/23 04:46:35;;;;;;;6.75;2.83;;;;;;;21.80;40.72;99860.97;5052295;28;20045;-70
2022/05/23 04:51:50;;;;;;;4.28;2.65;;;;;;;20.91;41.67;99857.28;5052664;28;20061;-71
2022/05/23 04:54:18;;;;;;;5.05;2.50;;;;;;;21.47;41.50;99861.03;5051256;28;20474;-71
2022/05/23 04:56:47;;;;;;;7.55;3.08;;;;;;;22.02;40.50;99857.53;5052733;28;20045;-70
2022/05/23 04:59:15;;;;;;;5.50;2.70;;;;;;;22.06;40.03;99861.56;5051395;28;20452;-78
2022/05/23 05:01:43;;;;;;;5.13;2.80;;;;;;;22.70;39.05;99858.75;5052799;28;20489;-70
2022/05/23 05:04:13;;;;;;;5.57;2.20;;;;;;;22.50;38.34;99861.91;5052627;28;20033;-70
2022/05/23 05:06:41;;;;;;;5.28;2.85;;;;;;;22.60;38.92;99869.84;5068076;28;20452;-71
2022/05/23 05:09:09;;;;;;;6.65;2.65;;;;;;;22.65;38.00;99872.84;5052444;28;20045;-79
2022/05/23 05:11:38;;;;;;;6.57;2.70;;;;;;;23.11;37.72;99876.47;5050883;28;20049;-75
2022/05/23 05:14:06;;;;;;;8.43;2.50;;;;;;;22.96;37.01;99882.88;5059085;28;20508;-71
2022/05/23 05:16:35;;;;;;;5.40;2.85;;;;;;;23.48;37.03;99893.00;5072182;28;20121;-71
2022/05/23 05:19:03;;;;;;;6.00;2.80;;;;;;;23.45;36.79;99886.06;5072247;28;20060;-70
2022/05/23 05:21:33;;;;;;;8.32;3.20;;;;;;;23.80;36.51;99880.97;5070844;28;20055;-69
2022/05/23 05:24:08;;;;;;;7.45;2.83;;;;;;;24.35;35.23;99877.81;5071139;28;20115;-69
2022/05/23 05:26:36;;;;;;;5.57;2.75;;;;;;;24.37;35.09;99881.19;5071055;28;20056;-70
2022/05/23 05:29:04;;;;;;;5.20;2.55;;;;;;;24.34;34.95;99881.56;5073013;28;20123;-69
2022/05/23 05:31:38;;;;;;;4.68;2.63;;;;;;;24.32;34.93;99880.91;5074040;28;20541;-68
2022/05/23 05:34:14;;;;;;;4.68;2.78;;;;;;;24.33;35.58;99876.31;5074725;28;20060;-68
2022/05/23 05:36:47;;;;;;;5.82;2.90;;;;;;;25.45;33.28;99877.50;5075953;28;20037;-68
2022/05/23 05:39:17;;;;;;;6.72;2.60;;;;;;;24.65;34.01;99872.28;5075444;28;20040;-68
2022/05/23 05:41:51;;;;;;;7.20;2.78;;;;;;;25.29;33.86;99875.06;5075772;28;20052;-69
2022/05/23 05:44:23;;;;;;;6.35;2.67;;;;;;;26.74;30.62;99870.50;5075436;28;20040;-71
2022/05/23 05:46:55;;;;;;;;;;;;;;;25.68;31.83;99867.19;5076005;28;20395;-70
2022/05/23 05:49:47;;;;;;;7.07;3.05;;;;;;;26.03;31.53;99871.84;5074096;28;19925;-71
2022/05/23 05:52:19;;;;;;;9.68;3.05;;;;;;;26.24;31.51;99877.22;5074035;28;20056;-71
2022/05/23 05:54:47;;;;;;;5.32;2.38;;;;;;;26.39;30.76;99874.38;5074370;28;20387;-71
2022/05/23 05:57:16;;;;;;;8.10;2.70;;;;;;;26.78;30.43;99868.19;5074073;28;20106;-74
2022/05/23 05:59:44;;;;;;;7.00;2.97;;;;;;;26.56;30.63;99872.97;5073623;28;20083;-74
2022/05/23 06:02:12;;;;;;;7.13;3.00;;;;;;;26.82;29.99;99873.03;5074187;28;20055;-71
2022/05/23 06:04:40;;;;;;;5.40;2.47;;;;;;;26.82;29.80;99869.47;5074982;28;20405;-71
2022/05/23 06:12:41;;;;;;;4.90;1.90;;;;;;;25.21;30.69;99877.94;5074714;28;20396;-70
2022/05/23 06:15:09;;;;;;;5.47;2.20;;;;;;;24.98;31.75;99878.09;5075051;28;20045;-70
2022/05/23 06:17:42;;;;;;;5.13;2.10;;;;;;;25.40;31.44;99874.53;5073525;28;20074;-70
2022/05/23 06:20:11;;;;;;;5.03;2.25;;;;;;;25.89;30.24;99887.31;5075222;28;20044;-70
2022/05/23 06:22:40;;;;;;;5.95;2.22;;;;;;;26.14;31.13;99885.78;5073391;28;20061;-70
2022/05/23 06:25:10;;;;;;;9.98;2.30;;;;;;;26.72;29.66;99890.91;5074778;28;20127;-70
2022/05/23 06:27:39;;;;;;;5.38;2.20;;;;;;;27.51;28.05;99885.59;5071629;28;20053;-71
2022/05/23 06:30:09;;;;;;;5.57;2.10;;;;;;;27.61;28.11;99880.53;5053520;28;20076;-70
2022/05/23 06:32:38;;;;;;;6.45;2.20;;;;;;;27.04;28.71;99892.09;5053392;28;20098;-71
2022/05/23 06:35:08;;;;;;;3.53;1.55;;;;;;;26.98;27.76;99881.91;5053331;28;20059;-74
2022/05/23 06:37:37;;;;;;;4.25;1.50;;;;;;;26.65;27.12;99879.13;5059378;28;20048;-71
2022/05/23 06:40:11;;;;;;;4.68;1.50;;;;;;;26.11;28.85;99875.25;5052951;28;20119;-72
2022/05/23 06:42:39;;;;;;;6.60;1.63;;;;;;;26.96;27.73;99873.09;5054448;28;20458;-72
2022/05/23 06:45:11;;;;;;;6.68;1.80;;;;;;;27.28;26.47;99866.81;5053494;28;20060;-71
2022/05/23 06:47:40;;;;;;;5.53;1.80;;;;;;;27.87;25.71;99862.38;5053091;28;20127;-72
2022/05/23 06:50:09;;;;;;;4.47;1.95;;;;;;;27.92;26.46;99865.34;5069891;28;20381;-72
2022/05/23 06:52:38;;;;;;;5.13;1.88;;;;;;;27.71;26.25;99850.00;5052538;28;20045;-74
2022/05/23 06:55:09;;;;;;;4.45;2.00;;;;;;;27.58;26.76;99850.81;5053110;28;20091;-73
2022/05/23 06:57:38;;;;;;;6.70;1.90;;;;;;;26.28;28.00;99853.06;5054246;28;20037;-75
2022/05/23 07:00:10;;;;;;;2.80;1.60;;;;;;;25.73;28.96;99846.66;5054447;28;20091;-74
2022/05/23 07:02:38;;;;;;;3.97;1.80;;;;;;;25.08;29.29;99852.19;5053786;28;20091;-72
2022/05/23 07:13:28;;;;;;;4.22;1.75;;;;;;;23.91;31.56;99848.66;5068957;28;20545;-71
2022/05/23 07:15:58;;;;;;;5.03;1.70;;;;;;;23.86;31.47;99848.41;5052672;28;20049;-72
2022/05/23 07:18:29;;;;;;;3.28;1.63;;;;;;;23.09;32.47;99843.19;5053488;28;20539;-72
2022/05/23 07:20:58;;;;;;;3.95;1.58;;;;;;;23.08;33.18;99841.50;5052331;28;20053;-72
2022/05/23 07:23:26;;;;;;;6.07;1.75;;;;;;;23.21;33.15;99834.56;5052332;28;20048;-78
2022/05/23 07:25:55;;;;;;;4.72;1.48;;;;;;;22.65;33.68;99832.06;5052442;28;20048;-71
2022/05/23 07:28:24;;;;;;;7.05;1.98;;;;;;;22.76;33.41;99836.25;5052392;28;20043;-71
2022/05/23 07:30:52;;;;;;;5.03;1.80;;;;;;;22.88;34.46;99844.88;5052421;28;20099;-71
2022/05/23 07:33:21;;;;;;;4.43;1.77;;;;;;;22.97;34.34;99841.91;5052385;28;20129;-71
2022/05/23 07:35:57;;;;;;;6.65;2.10;;;;;;;22.98;33.62;99830.00;5052135;28;20072;-71
2022/05/23 07:38:26;;;;;;;7.00;1.88;;;;;;;22.75;34.27;99832.69;5052443;28;20478;-71
2022/05/23 07:40:56;;;;;;;4.25;1.88;;;;;;;22.39;34.80;99828.84;5068927;28;20045;-71
2022/05/23 07:43:25;;;;;;;3.42;1.40;;;;;;;21.57;35.56;99833.72;5069065;28;20080;-71
2022/05/23 07:45:54;;;;;;;6.03;1.77;;;;;;;21.86;35.35;99835.84;5068932;28;20497;-71
2022/05/23 07:48:23;;;;;;;4.57;1.60;;;;;;;21.28;36.63;99829.69;5069112;28;20041;-71
2022/05/23 07:50:51;;;;;;;6.80;1.98;;;;;;;21.63;36.17;99831.19;5051130;28;20128;-71
2022/05/23 08:01:37;;;;;;;6.53;1.75;;;;;;;21.40;36.10;99827.47;5053074;28;20462;-71
2022/05/23 08:04:08;;;;;;;8.55;1.75;;;;;;;21.69;35.61;99833.16;5052080;28;20056;-71
2022/05/23 08:06:36;;;;;;;5.38;1.70;;;;;;;21.82;34.63;99832.66;5051725;28;20111;-71
2022/05/23 08:09:05;;;;;;;4.68;1.63;;;;;;;21.86;34.99;99835.84;5068562;28;20048;-71
2022/05/23 08:11:34;;;;;;;4.40;1.65;;;;;;;21.90;35.40;99831.75;5052875;28;20044;-72
2022/05/23 08:14:02;;;;;;;4.55;1.50;;;;;;;21.88;36.08;99825.66;5051832;28;20081;-71
2022/05/23 08:16:30;;;;;;;4.53;1.60;;;;;;;22.03;36.14;99818.47;5052986;28;20471;-72
2022/05/23 08:19:00;;;;;;;4.78;1.80;;;;;;;22.23;34.74;99808.91;5051853;28;20041;-71
2022/05/23 08:21:29;;;;;;;6.55;2.15;;;;;;;22.21;34.91;99816.38;5051857;28;20068;-71
2022/05/23 08:23:57;;;;;;;6.28;1.80;;;;;;;22.07;34.06;99814.41;5052158;28;20099;-71
2022/05/23 08:26:27;;;;;;;4.57;1.80;;;;;;;22.21;34.46;99810.97;5051658;28;20048;-71
2022/05/23 08:28:56;;;;;;;6.80;2.03;;;;;;;22.20;33.93;99794.84;5052840;28;20065;-71
2022/05/23 08:31:24;;;;;;;6.40;1.73;;;;;;;22.27;32.78;99810.22;5068477;28;20072;-71
2022/05/23 08:33:53;;;;;;;7.60;1.70;;;;;;;22.28;32.53;99805.63;5051449;28;20099;-71
2022/05/23 08:36:21;;;;;;;4.00;1.50;;;;;;;22.27;32.47;99806.66;5053002;28;20044;-71
2022/05/23 08:38:49;;;;;;;4.85;1.90;;;;;;;22.43;32.00;99805.72;5052438;28;20183;-71
2022/05/23 08:41:22;;;;;;;4.93;1.70;;;;;;;22.19;32.79;99802.13;5051860;28;20045;-71
2022/05/23 08:44:02;;;;;;;4.75;1.52;;;;;;;22.45;33.41;99795.53;5051388;28;20056;-71
2022/05/23 08:46:44;;;;;;;5.57;1.92;;;;;;;22.48;32.85;99787.00;5068433;28;20049;-73
2022/05/23 08:49:22;;;;;;;4.55;1.65;;;;;;;22.21;33.57;99793.81;5053015;28;20033;-71
2022/05/23 08:52:00;;;;;;;4.88;1.80;;;;;;;22.21;33.92;99786.50;5052420;28;20041;-71
2022/05/23 08:54:32;;;;;;;6.93;1.70;;;;;;;22.05;34.04;99786.56;5051628;28;20397;-71
2022/05/23 08:57:03;;;;;;;5.00;1.60;;;;;;;22.23;33.94;99779.03;5052958;28;20040;-71
2022/05/23 08:59:43;;;;;;;6.57;1.65;;;;;;;22.50;33.41;99771.38;5052838;28;20041;-71
2022/05/23 09:02:19;;;;;;;6.00;1.67;;;;;;;22.53;32.46;99765.59;5069191;28;20107;-71
2022/05/23 09:04:53;;;;;;;4.65;1.63;;;;;;;22.73;31.87;99761.34;5054943;28;20132;-71
2022/05/23 09:07:28;;;;;;;5.15;1.63;;;;;;;22.72;32.05;99756.94;5055268;28;20049;-71
2022/05/23 09:10:00;;;;;;;5.07;2.10;;;;;;;22.94;31.37;99768.00;5054667;28;20076;-71
2022/05/23 09:12:31;;;;;;;6.13;1.80;;;;;;;22.95;31.62;99764.25;5054915;28;20500;-71
2022/05/23 09:14:59;;;;;;;7.72;1.85;;;;;;;22.63;31.63;99758.03;5055399;28;20379;-71
2022/05/23 09:17:35;;;;;;;5.25;1.70;;;;;;;22.62;31.85;99759.06;5056319;28;20056;-71
2022/05/23 09:20:08;;;;;;;6.43;1.85;;;;;;;22.66;31.45;99760.38;5055193;28;20040;-71
2022/05/23 09:22:43;;;;;;;7.40;1.98;;;;;;;22.52;31.03;99753.03;5056165;28;20033;-72
2022/05/23 09:25:16;;;;;;;6.78;1.95;;;;;;;22.60;29.72;99761.13;5056273;28;20078;-71
2022/05/23 09:27:50;;;;;;;4.75;1.80;;;;;;;22.36;30.79;99753.13;5055890;28;20037;-71
2022/05/23 09:30:22;;;;;;;5.18;1.67;;;;;;;22.46;30.50;99748.28;5071672;28;20059;-71
2022/05/23 09:32:55;;;;;;;3.28;1.67;;;;;;;22.15;30.63;99761.91;5054567;28;20047;-71
2022/05/23 09:35:25;;;;;;;4.63;2.00;;;;;;;22.55;30.49;99758.94;5054656;28;20040;-71
2022/05/23 09:38:15;;;;;;;6.05;1.70;;;;;;;22.74;29.77;99757.59;5055727;28;20099;-71
2022/05/23 09:40:44;;;;;;;4.25;1.70;;;;;;;22.96;28.99;99755.91;5054347;28;20061;-71
2022/05/23 09:49:10;;;;;;;4.07;1.88;;;;;;;22.73;29.66;99745.03;5070951;28;20140;-71
2022/05/23 09:51:51;;;;;;;4.33;1.57;;;;;;;22.80;28.97;99746.00;5055070;28;20048;-71
2022/05/23 09:54:26;;;;;;;4.88;1.88;;;;;;;23.21;28.64;99737.47;5055573;28;20037;-71
2022/05/23 09:56:56;;;;;;;5.95;1.70;;;;;;;23.58;28.89;99743.88;5054060;28;20581;-71
2022/05/23 09:59:29;;;;;;;5.22;1.90;;;;;;;23.83;28.60;99741.69;5054397;28;20501;-71
2022/05/23 10:01:58;;;;;;;4.15;1.90;;;;;;;23.93;28.10;99737.69;5070716;28;20057;-71
2022/05/23 10:04:30;;;;;;;3.95;1.90;;;;;;;24.22;27.95;99741.34;5054180;28;20060;-73
2022/05/23 10:07:01;;;;;;;4.40;1.90;;;;;;;24.24;28.14;99733.84;5053869;28;20060;-71
2022/05/23 10:09:33;;;;;;;3.63;1.80;;;;;;;24.35;27.69;99733.34;5054143;28;20077;-71
2022/05/23 10:12:06;;;;;;;4.82;1.80;;;;;;;24.40;26.75;99728.16;5053885;28;20048;-73
2022/05/23 10:14:47;;;;;;;4.97;1.80;;;;;;;24.35;26.71;99727.06;5054534;28;20037;-73
2022/05/23 10:17:26;;;;;;;6.88;1.80;;;;;;;23.89;27.93;99725.44;5055387;28;20047;-73
2022/05/23 10:20:27;;;;;;;5.72;1.50;;;;;;;24.18;27.96;99719.09;5053569;28;20041;-73
2022/05/23 10:22:59;;;;;;;5.93;1.67;;;;;;;24.52;27.08;99721.16;5053617;28;20098;-73
2022/05/23 10:25:33;;;;;;;3.60;1.67;;;;;;;24.71;26.52;99719.66;5055131;28;20063;-73
2022/05/23 10:28:08;;;;;;;3.88;1.45;;;;;;;24.52;26.98;99723.88;5054451;28;20072;-73
2022/05/23 10:30:39;;;;;;;3.85;1.55;;;;;;;24.43;26.68;99716.88;5054960;28;20492;-73
2022/05/23 10:33:10;;;;;;;3.50;1.60;;;;;;;24.40;26.76;99716.41;5053847;28;20045;-73
2022/05/23 10:35:44;;;;;;;5.50;1.70;;;;;;;24.01;26.55;99722.22;5054980;28;20037;-74
2022/05/23 10:44:02;;;;;;;;;;;;;;;24.02;27.04;99711.13;5054954;28;20442;-73
2022/05/23 10:46:35;;;;;;;5.55;1.88;;;;;;;24.17;26.75;99717.41;5054711;28;19916;-72
2022/05/23 10:49:14;;;;;;;2.88;1.58;;;;;;;24.44;26.75;99709.53;5054597;28;20458;-72
2022/05/23 10:51:57;;;;;;;3.60;1.30;;;;;;;24.59;26.05;99698.53;5052460;28;20478;-73
2022/05/23 10:54:42;;;;;;;3.65;1.50;;;;;;;24.37;26.63;99686.81;5054619;28;20385;-73
2022/05/23 10:57:27;;;;;;;7.00;1.50;;;;;;;24.35;27.10;99688.91;5054323;28;20040;-72
2022/05/23 11:00:03;;;;;;;6.03;1.73;;;;;;;24.44;27.59;99688.56;5054129;28;20390;-73
2022/05/23 11:02:40;;;;;;;4.65;1.58;;;;;;;24.30;27.77;99685.88;5053077;28;20045;-72
2022/05/23 11:05:16;;;;;;;5.85;1.67;;;;;;;24.65;28.46;99676.81;5053072;28;20045;-73
2022/05/23 11:08:07;;;;;;;5.63;2.20;;;;;;;24.41;29.07;99675.31;5052613;28;20072;-73
2022/05/23 11:10:42;;;;;;;7.28;2.15;;;;;;;24.39;29.58;99674.66;5054379;28;20037;-73
2022/05/23 11:13:25;;;;;;;5.63;2.05;;;;;;;24.12;28.04;99673.53;5054154;28;20091;-72
2022/05/23 11:16:06;;;;;;;4.85;1.90;;;;;;;24.20;27.86;99680.75;5052674;28;20064;-72
2022/05/23 11:19:07;;;;;;;5.13;1.90;;;;;;;24.63;27.29;99672.59;5054215;28;20041;-72
2022/05/23 11:21:43;;;;;;;5.93;2.00;;;;;;;24.88;26.52;99668.38;5052204;28;20505;-72
2022/05/23 11:24:17;;;;;;;5.03;1.90;;;;;;;24.75;26.62;99660.09;5053964;28;20091;-73
2022/05/23 11:26:51;;;;;;;5.72;1.85;;;;;;;24.90;28.15;99657.25;5052496;28;20056;-73
2022/05/23 11:34:59;;;;;;;6.13;2.10;;;;;;;26.15;27.41;99663.38;5052088;28;20064;-73
2022/05/23 11:37:47;;;;;;;7.93;2.00;;;;;;;25.85;27.62;99670.19;5069166;28;20052;-72
2022/05/23 11:41:06;;;;;;;3.08;1.70;;;;;;;25.97;27.60;99665.84;5053944;28;20045;-72
2022/05/23 11:43:35;;;;;;;5.45;1.92;;;;;;;25.61;27.97;99668.84;4995179;28;20052;-72
2022/05/23 11:46:06;;;;;;;5.43;2.40;;;;;;;25.30;28.40;99663.84;5038689;28;20094;-72
2022/05/23 11:48:50;;;;;;;6.95;1.90;;;;;;;25.25;28.95;99661.72;5068692;28;20051;-72
2022/05/23 11:51:31;;;;;;;10.77;2.17;;;;;;;25.09;28.83;99659.31;5053185;28;20048;-72
2022/05/23 11:54:08;;;;;;;6.20;2.15;;;;;;;25.20;28.75;99652.47;5051863;28;20049;-72
2022/05/23 11:57:21;;;;;;;4.43;1.80;;;;;;;25.38;28.97;99655.47;5053428;28;20120;-72
2022/05/23 12:00:16;;;;;;;4.47;1.73;;;;;;;25.20;29.03;99655.19;5004554;28;20151;-72
2022/05/23 12:03:05;;;;;;;6.85;1.95;;;;;;;24.96;29.18;99653.75;5049193;28;20049;-72
2022/05/23 12:05:35;;;;;;;6.13;1.80;;;;;;;25.23;29.36;99647.44;5052187;28;20071;-71
2022/05/23 12:08:28;;;;;;;4.68;1.80;;;;;;;25.25;28.87;99660.88;5051531;28;20041;-72
2022/05/23 12:11:00;;;;;;;5.57;1.85;;;;;;;25.39;29.43;99659.91;5051601;28;20045;-72
2022/05/23 12:13:57;;;;;;;6.28;1.80;;;;;;;25.74;28.97;99652.53;5052038;28;20127;-72
2022/05/23 12:16:44;;;;;;;3.33;1.60;;;;;;;25.67;28.84;99666.13;5052037;28;20102;-71
2022/05/23 12:19:21;;;;;;;5.55;2.00;;;;;;;25.61;29.06;99661.47;5053221;28;20423;-71
2022/05/23 12:21:51;;;;;;;3.13;1.50;;;;;;;25.65;29.48;99654.56;5052757;28;20120;-71
2022/05/23 12:24:31;;;;;;;6.43;2.05;;;;;;;25.48;29.07;99664.16;5053194;28;20063;-73
2022/05/23 12:27:30;;;;;;;6.28;1.90;;;;;;;25.65;29.01;99657.28;5052966;28;20440;-72
2022/05/23 12:30:43;;;;;;;5.10;2.10;;;;;;;25.79;29.39;99651.91;5051546;28;20079;-73
2022/05/23 12:33:22;;;;;;;6.53;2.22;;;;;;;25.61;28.63;99636.91;5037639;28;20087;-73
2022/05/23 12:35:57;;;;;;;6.88;1.90;;;;;;;25.72;28.48;99629.19;5051229;28;20049;-73
2022/05/23 12:38:41;;;;;;;4.68;2.10;;;;;;;25.88;28.55;99624.22;5054842;28;20485;-72
2022/05/23 12:41:30;;;;;;;5.85;1.70;;;;;;;26.14;28.38;99617.94;5056833;28;20489;-72
2022/05/23 12:44:40;;;;;;;3.60;1.90;;;;;;;25.69;28.58;99619.50;5056473;28;20422;-71
2022/05/23 12:47:17;;;;;;;5.85;1.77;;;;;;;25.92;28.35;99619.16;4995631;28;20220;-73
2022/05/23 12:49:55;;;;;;;4.53;1.63;;;;;;;25.71;28.99;99620.16;5055210;28;20044;-73
2022/05/23 12:52:40;;;;;;;7.60;1.95;;;;;;;26.02;28.44;99605.09;5056379;28;20077;-73
2022/05/23 12:55:26;;;;;;;3.30;1.60;;;;;;;26.27;27.55;99595.25;5071990;28;20086;-71